createdAt,value
2019-01-14T00:02:04.982Z,100.00
2019-01-14T00:04:33.655Z,100.00
2019-01-14T00:07:02.198Z,100.00
2019-01-14T00:09:31.449Z,100.00
2019-01-14T00:12:00.167Z,100.00
2019-01-14T00:14:28.765Z,100.00
2019-01-14T00:16:57.366Z,100.00
2019-01-14T00:19:26.116Z,100.00
2019-01-14T00:21:54.640Z,100.00
2019-01-14T00:24:23.354Z,100.00
2019-01-14T00:26:52.367Z,100.00
2019-01-14T00:29:21.365Z,100.00
2019-01-14T00:31:50.050Z,100.00
2019-01-14T00:34:19.087Z,100.00
2019-01-14T00:36:48.038Z,100.00
2019-01-14T00:39:16.678Z,100.00
2019-01-14T00:41:45.218Z,100.00
2019-01-14T00:44:13.805Z,100.00
2019-01-14T00:46:42.343Z,98.99
2019-01-14T00:49:10.938Z,97.91
2019-01-14T00:51:39.435Z,97.18
2019-01-14T00:54:07.981Z,98.43
2019-01-14T00:56:36.866Z,96.93
2019-01-14T00:59:05.914Z,96.62
2019-01-14T01:01:34.484Z,98.55
2019-01-14T01:04:03.314Z,99.46
2019-01-14T01:06:31.899Z,98.34
2019-01-14T01:09:00.873Z,99.14
2019-01-14T01:11:29.454Z,97.78
2019-01-14T01:13:58.007Z,98.13
2019-01-14T01:16:26.511Z,97.42
2019-01-14T01:18:55.148Z,99.22
2019-01-14T01:21:24.058Z,99.17
2019-01-14T01:23:52.654Z,99.37
2019-01-14T01:26:21.175Z,100.00
2019-01-14T01:28:50.191Z,100.00
2019-01-14T01:31:18.702Z,100.00
2019-01-14T01:33:47.292Z,100.00
2019-01-14T01:36:15.811Z,100.00
2019-01-14T01:38:44.377Z,100.00
2019-01-14T01:41:12.880Z,100.00
2019-01-14T01:43:41.457Z,100.00
2019-01-14T01:46:09.979Z,100.00
2019-01-14T01:48:38.610Z,100.00
2019-01-14T01:51:07.108Z,100.00
2019-01-14T01:53:35.715Z,100.00
2019-01-14T01:56:04.485Z,100.00
2019-01-14T01:58:33.081Z,100.00
2019-01-14T02:01:01.938Z,100.00
2019-01-14T02:03:30.522Z,100.00
2019-01-14T02:05:59.028Z,100.00
2019-01-14T02:08:27.594Z,100.00
2019-01-14T02:10:56.116Z,100.00
2019-01-14T02:13:24.688Z,100.00
2019-01-14T02:15:53.479Z,100.00
2019-01-14T02:18:22.033Z,100.00
2019-01-14T02:20:50.533Z,100.00
2019-01-14T02:23:19.138Z,100.00
2019-01-14T02:25:47.943Z,100.00
2019-01-14T02:28:16.538Z,100.00
2019-01-14T02:30:45.063Z,100.00
2019-01-14T02:33:13.660Z,100.00
2019-01-14T02:35:42.582Z,100.00
2019-01-14T02:38:11.213Z,100.00
2019-01-14T02:40:39.719Z,100.00
2019-01-14T02:43:08.266Z,100.00
2019-01-14T02:45:36.797Z,100.00
2019-01-14T02:48:05.383Z,100.00
2019-01-14T02:50:33.917Z,100.00
2019-01-14T02:53:02.528Z,100.00
2019-01-14T02:55:31.082Z,100.00
2019-01-14T02:57:59.633Z,100.00
2019-01-14T03:00:28.444Z,99.24
2019-01-14T03:02:57.282Z,100.00
2019-01-14T03:05:26.203Z,99.80
2019-01-14T03:07:54.772Z,99.76
2019-01-14T03:10:23.674Z,99.20
2019-01-14T03:12:52.345Z,98.75
2019-01-14T03:15:21.039Z,98.50
2019-01-14T03:17:49.617Z,97.60
2019-01-14T03:20:18.250Z,98.09
2019-01-14T03:22:47.044Z,97.67
2019-01-14T03:25:16.029Z,97.53
2019-01-14T03:27:44.961Z,97.82
2019-01-14T03:30:15.852Z,97.00
2019-01-14T03:32:44.691Z,98.89
2019-01-14T03:35:13.362Z,97.52
2019-01-14T03:37:41.926Z,97.17
2019-01-14T03:40:13.288Z,96.22
2019-01-14T03:42:42.228Z,97.25
2019-01-14T03:45:12.289Z,96.48
2019-01-14T03:47:41.342Z,97.79
2019-01-14T03:50:16.374Z,97.97
2019-01-14T03:52:45.018Z,96.16
2019-01-14T03:55:13.867Z,97.76
2019-01-14T03:57:43.449Z,97.62
2019-01-14T04:00:14.437Z,96.99
2019-01-14T04:02:43.079Z,97.30
2019-01-14T04:05:11.712Z,98.03
2019-01-14T04:07:40.325Z,96.58
2019-01-14T04:10:14.835Z,97.58
2019-01-14T04:12:43.562Z,96.01
2019-01-14T04:15:15.305Z,95.77
2019-01-14T04:17:44.991Z,94.39
2019-01-14T04:20:19.589Z,94.72
2019-01-14T04:22:48.451Z,93.91
2019-01-14T04:25:17.324Z,90.19
2019-01-14T04:27:45.959Z,87.81
2019-01-14T04:30:22.334Z,88.87
2019-01-14T04:32:51.455Z,87.60
2019-01-14T04:35:20.417Z,89.62
2019-01-14T04:37:49.070Z,88.98
2019-01-14T04:40:17.644Z,88.13
2019-01-14T04:42:46.254Z,88.63
2019-01-14T04:45:15.969Z,87.41
2019-01-14T04:47:44.564Z,87.18
2019-01-14T04:50:16.057Z,85.41
2019-01-14T04:52:45.055Z,86.13
2019-01-14T04:55:13.679Z,86.24
2019-01-14T05:00:06.820Z,84.80
2019-01-14T05:02:35.450Z,84.72
2019-01-14T05:05:06.493Z,85.58
2019-01-14T05:07:35.082Z,86.12
2019-01-14T05:10:08.892Z,85.32
2019-01-14T05:12:37.470Z,83.52
2019-01-14T05:15:09.416Z,83.06
2019-01-14T05:17:38.387Z,82.38
2019-01-14T05:20:10.131Z,82.79
2019-01-14T05:22:39.135Z,84.16
2019-01-14T05:25:08.673Z,83.21
2019-01-14T05:27:37.255Z,84.04
2019-01-14T05:30:11.829Z,84.37
2019-01-14T05:32:40.417Z,82.88
2019-01-14T05:35:09.970Z,82.35
2019-01-14T05:37:38.532Z,81.80
2019-01-14T05:40:19.565Z,81.27
2019-01-14T05:42:48.088Z,81.75
2019-01-14T05:45:16.773Z,80.58
2019-01-14T05:47:45.321Z,81.68
2019-01-14T05:50:15.383Z,80.99
2019-01-14T05:52:43.990Z,79.60
2019-01-14T05:55:13.746Z,80.45
2019-01-14T05:57:42.298Z,81.23
2019-01-14T06:00:19.779Z,82.17
2019-01-14T06:02:48.822Z,82.21
2019-01-14T06:05:17.337Z,82.39
2019-01-14T06:07:45.919Z,83.62
2019-01-14T06:10:14.524Z,85.02
2019-01-14T06:12:43.129Z,85.23
2019-01-14T06:15:14.280Z,86.57
2019-01-14T06:17:42.929Z,87.06
2019-01-14T06:20:18.101Z,87.63
2019-01-14T06:22:46.730Z,88.49
2019-01-14T06:25:15.714Z,89.06
2019-01-14T06:27:44.349Z,89.64
2019-01-14T06:30:24.968Z,90.82
2019-01-14T06:32:54.945Z,91.27
2019-01-14T06:35:23.836Z,92.55
2019-01-14T06:37:52.812Z,93.21
2019-01-14T06:40:22.065Z,93.71
2019-01-14T06:42:50.659Z,94.40
2019-01-14T06:45:19.241Z,94.42
2019-01-14T06:47:48.276Z,94.07
2019-01-14T06:50:19.458Z,92.92
2019-01-14T06:52:48.104Z,92.42
2019-01-14T06:55:18.181Z,91.13
2019-01-14T06:57:46.881Z,90.42
2019-01-14T07:00:20.842Z,90.68
2019-01-14T07:02:49.543Z,88.59
2019-01-14T07:05:18.385Z,88.93
2019-01-14T07:07:47.007Z,88.22
2019-01-14T07:10:24.281Z,87.74
2019-01-14T07:12:52.916Z,88.33
2019-01-14T07:15:21.851Z,86.75
2019-01-14T07:17:50.457Z,87.74
2019-01-14T07:20:19.844Z,87.00
2019-01-14T07:22:48.848Z,86.53
2019-01-14T07:25:17.532Z,85.37
2019-01-14T07:27:46.199Z,84.26
2019-01-14T07:30:19.730Z,82.29
2019-01-14T07:32:48.496Z,80.09
2019-01-14T07:35:17.351Z,79.74
2019-01-14T07:37:46.361Z,81.14
2019-01-14T07:40:17.119Z,81.65
2019-01-14T07:42:45.689Z,83.03
2019-01-14T07:45:16.326Z,84.57
2019-01-14T07:47:45.024Z,84.20
2019-01-14T07:50:24.141Z,84.14
2019-01-14T07:55:37.223Z,86.58
2019-01-14T07:58:09.068Z,89.00
2019-01-14T08:00:39.656Z,88.92
2019-01-14T08:03:08.212Z,87.19
2019-01-14T08:05:37.166Z,86.77
2019-01-14T08:08:05.724Z,86.57
2019-01-14T08:10:34.654Z,84.97
2019-01-14T08:13:03.303Z,83.75
2019-01-14T08:15:31.887Z,83.30
2019-01-14T08:18:00.469Z,83.56
2019-01-14T08:20:29.015Z,81.81
2019-01-14T08:22:57.630Z,81.67
2019-01-14T08:25:26.540Z,81.82
2019-01-14T08:27:55.524Z,80.90
2019-01-14T08:30:24.924Z,80.73
2019-01-14T08:32:53.771Z,80.90
2019-01-14T08:35:22.670Z,80.84
2019-01-14T08:37:51.409Z,80.37
2019-01-14T08:40:21.295Z,79.87
2019-01-14T08:42:50.183Z,78.65
2019-01-14T08:45:19.060Z,79.35
2019-01-14T08:47:47.689Z,79.48
2019-01-14T08:50:18.089Z,77.65
2019-01-14T08:52:46.772Z,77.60
2019-01-14T08:55:15.384Z,76.16
2019-01-14T08:57:43.967Z,76.99
2019-01-14T09:00:15.811Z,75.95
2019-01-14T09:02:44.521Z,76.04
2019-01-14T09:05:13.217Z,76.22
2019-01-14T09:07:41.931Z,75.13
2019-01-14T09:10:16.337Z,76.41
2019-01-14T09:12:45.079Z,75.06
2019-01-14T09:15:16.885Z,74.78
2019-01-14T09:17:45.591Z,76.02
2019-01-14T09:20:16.662Z,75.91
2019-01-14T09:22:45.341Z,74.69
2019-01-14T09:25:13.928Z,74.54
2019-01-14T09:27:42.638Z,73.96
2019-01-14T09:30:17.217Z,74.17
2019-01-14T09:32:46.029Z,74.71
2019-01-14T09:35:14.583Z,73.92
2019-01-14T09:37:43.233Z,73.78
2019-01-14T09:40:15.889Z,75.84
2019-01-14T09:42:44.554Z,74.97
2019-01-14T09:45:13.377Z,74.47
2019-01-14T09:47:42.164Z,74.22
2019-01-14T09:50:13.278Z,74.69
2019-01-14T09:52:42.096Z,74.91
2019-01-14T09:55:16.028Z,72.33
2019-01-14T09:57:46.567Z,72.20
2019-01-14T10:00:15.355Z,71.68
2019-01-14T10:02:44.502Z,73.01
2019-01-14T10:05:16.991Z,72.64
2019-01-14T10:07:46.401Z,71.90
2019-01-14T10:10:16.892Z,70.32
2019-01-14T10:12:45.642Z,70.31
2019-01-14T10:15:19.506Z,68.84
2019-01-14T10:17:50.300Z,69.85
2019-01-14T10:20:18.944Z,68.84
2019-01-14T10:22:47.628Z,65.84
2019-01-14T10:25:16.235Z,67.00
2019-01-14T10:27:44.840Z,67.69
2019-01-14T10:30:18.484Z,65.61
2019-01-14T10:32:47.717Z,65.50
2019-01-14T10:35:16.355Z,59.76
2019-01-14T10:37:45.057Z,54.70
2019-01-14T10:40:17.439Z,50.69
2019-01-14T10:42:46.147Z,47.21
2019-01-14T10:45:20.260Z,49.02
2019-01-14T10:47:49.162Z,48.33
2019-01-14T10:50:18.099Z,48.38
2019-01-14T10:52:46.809Z,51.79
2019-01-14T10:55:16.114Z,54.56
2019-01-14T10:57:45.700Z,53.97
2019-01-14T11:00:19.705Z,51.65
2019-01-14T11:02:50.591Z,50.23
2019-01-14T11:05:23.500Z,50.99
2019-01-14T11:07:52.508Z,50.06
2019-01-14T11:10:21.443Z,53.53
2019-01-14T11:12:50.692Z,55.19
2019-01-14T11:15:21.649Z,55.75
2019-01-14T11:17:50.517Z,55.49
2019-01-14T11:20:24.971Z,58.90
2019-01-14T11:22:53.865Z,60.53
2019-01-14T11:25:22.493Z,57.07
2019-01-14T11:27:51.935Z,54.36
2019-01-14T11:30:25.832Z,54.62
2019-01-14T11:32:54.495Z,56.88
2019-01-14T11:35:23.199Z,57.47
2019-01-14T11:37:52.028Z,57.95
2019-01-14T11:40:27.233Z,55.21
2019-01-14T11:42:55.975Z,54.39
2019-01-14T11:45:24.474Z,52.31
2019-01-14T11:47:53.230Z,55.10
2019-01-14T11:50:22.430Z,52.86
2019-01-14T11:52:51.259Z,53.88
2019-01-14T11:55:20.680Z,55.66
2019-01-14T11:57:51.702Z,56.24
2019-01-14T12:00:23.289Z,57.22
2019-01-14T12:02:52.520Z,57.61
2019-01-14T12:05:22.185Z,55.89
2019-01-14T12:07:51.292Z,55.61
2019-01-14T12:10:20.103Z,56.52
2019-01-14T12:12:48.815Z,56.88
2019-01-14T12:15:20.524Z,56.85
2019-01-14T12:17:49.713Z,58.63
2019-01-14T12:20:18.539Z,60.65
2019-01-14T12:22:48.566Z,58.97
2019-01-14T12:25:17.150Z,58.21
2019-01-14T12:27:45.888Z,58.31
2019-01-14T12:30:25.493Z,58.80
2019-01-14T12:32:54.253Z,57.66
2019-01-14T12:35:22.832Z,55.54
2019-01-14T12:37:51.675Z,55.99
2019-01-14T12:40:20.544Z,55.44
2019-01-14T12:42:49.337Z,55.46
2019-01-14T12:45:19.760Z,55.46
2019-01-14T12:47:49.031Z,54.08
2019-01-14T12:50:23.375Z,56.08
2019-01-14T12:52:53.645Z,55.98
2019-01-14T12:55:22.544Z,57.35
2019-01-14T12:57:51.413Z,58.23
2019-01-14T13:00:43.958Z,57.58
2019-01-14T13:03:13.106Z,57.09
2019-01-14T13:05:41.752Z,56.66
2019-01-14T13:08:12.232Z,57.34
2019-01-14T13:10:42.684Z,59.10
2019-01-14T13:13:11.413Z,57.78
2019-01-14T13:15:41.350Z,58.83
2019-01-14T13:18:14.458Z,59.67
2019-01-14T13:20:43.403Z,60.30
2019-01-14T13:23:12.078Z,60.29
2019-01-14T13:25:41.181Z,60.28
2019-01-14T13:28:10.872Z,60.48
2019-01-14T13:30:44.353Z,59.45
2019-01-14T13:33:13.474Z,62.31
2019-01-14T13:35:42.357Z,62.09
2019-01-14T13:38:11.928Z,61.32
2019-01-14T13:40:41.759Z,63.56
2019-01-14T13:43:11.078Z,62.45
2019-01-14T13:45:39.931Z,62.44
2019-01-14T13:48:11.423Z,63.41
2019-01-14T13:50:42.237Z,62.11
2019-01-14T13:53:11.172Z,54.63
2019-01-14T13:55:39.838Z,61.32
2019-01-14T13:58:08.601Z,62.25
2019-01-14T14:00:38.033Z,56.85
2019-01-14T14:03:07.384Z,59.70
2019-01-14T14:05:36.065Z,55.68
2019-01-14T14:08:05.157Z,60.23
2019-01-14T14:10:34.143Z,62.06
2019-01-14T14:13:04.217Z,61.98
2019-01-14T14:15:33.027Z,61.49
2019-01-14T14:18:02.234Z,62.32
2019-01-14T14:20:30.815Z,63.11
2019-01-14T14:22:59.763Z,60.43
2019-01-14T14:25:28.502Z,62.67
2019-01-14T14:27:57.550Z,63.25
2019-01-14T14:30:32.631Z,62.16
2019-01-14T14:33:01.800Z,62.89
2019-01-14T14:35:31.025Z,61.65
2019-01-14T14:38:01.638Z,63.49
2019-01-14T14:40:30.519Z,62.48
2019-01-14T14:42:59.356Z,61.92
2019-01-14T14:45:28.553Z,63.16
2019-01-14T14:47:57.963Z,62.61
2019-01-14T14:50:26.843Z,62.73
2019-01-14T14:52:59.438Z,63.33
2019-01-14T14:55:28.193Z,62.93
2019-01-14T14:57:56.862Z,61.85
2019-01-14T15:00:25.841Z,63.14
2019-01-14T15:02:54.606Z,63.88
2019-01-14T15:05:23.396Z,63.62
2019-01-14T15:07:52.050Z,64.43
2019-01-14T15:10:22.799Z,63.97
2019-01-14T15:12:51.635Z,64.48
2019-01-14T15:15:22.408Z,64.84
2019-01-14T15:17:52.406Z,65.70
2019-01-14T15:20:22.747Z,65.32
2019-01-14T15:22:53.143Z,67.22
2019-01-14T15:25:22.129Z,66.60
2019-01-14T15:27:51.136Z,67.64
2019-01-14T15:30:23.121Z,68.12
2019-01-14T15:32:52.174Z,66.92
2019-01-14T15:35:21.533Z,68.00
2019-01-14T15:37:50.610Z,69.06
2019-01-14T15:40:21.194Z,68.73
2019-01-14T15:42:52.958Z,70.00
2019-01-14T15:45:24.622Z,69.98
2019-01-14T15:47:55.503Z,70.03
2019-01-14T15:50:24.386Z,68.93
2019-01-14T15:52:53.495Z,70.71
2019-01-14T15:55:25.800Z,69.44
2019-01-14T15:57:56.737Z,69.67
2019-01-14T16:00:27.442Z,69.69
2019-01-14T16:02:57.712Z,69.98
2019-01-14T16:05:27.184Z,70.72
2019-01-14T16:07:56.832Z,69.82
2019-01-14T16:10:26.583Z,70.30
2019-01-14T16:12:55.376Z,69.65
2019-01-14T16:15:27.047Z,69.59
2019-01-14T16:17:56.097Z,69.09
2019-01-14T16:20:25.791Z,69.40
2019-01-14T16:22:55.316Z,68.66
2019-01-14T16:25:26.448Z,69.60
2019-01-14T16:27:55.546Z,69.30
2019-01-14T16:30:25.108Z,69.52
2019-01-14T16:32:54.300Z,69.93
2019-01-14T16:35:24.079Z,70.41
2019-01-14T16:37:52.908Z,70.54
2019-01-14T16:40:22.216Z,70.08
2019-01-14T16:42:51.869Z,69.97
2019-01-14T16:45:22.934Z,69.96
2019-01-14T16:47:51.959Z,70.64
2019-01-14T16:50:20.933Z,72.28
2019-01-14T16:52:50.399Z,70.92
2019-01-14T16:55:20.790Z,70.86
2019-01-14T16:57:50.635Z,70.97
2019-01-14T17:00:19.606Z,71.86
2019-01-14T17:02:51.370Z,72.71
2019-01-14T17:05:20.062Z,73.60
2019-01-14T17:07:48.848Z,74.75
2019-01-14T17:10:17.483Z,74.17
2019-01-14T17:12:46.180Z,75.07
2019-01-14T17:15:15.431Z,75.14
2019-01-14T17:17:44.294Z,75.46
2019-01-14T17:20:20.037Z,76.66
2019-01-14T17:22:48.806Z,76.46
2019-01-14T17:25:17.511Z,76.02
2019-01-14T17:27:46.913Z,76.68
2019-01-14T17:30:16.730Z,76.69
2019-01-14T17:32:46.449Z,75.89
2019-01-14T17:35:15.691Z,76.30
2019-01-14T17:37:45.446Z,76.60
2019-01-14T17:40:17.091Z,75.81
2019-01-14T17:42:45.897Z,77.19
2019-01-14T17:45:15.756Z,77.17
2019-01-14T17:47:45.087Z,77.38
2019-01-14T17:50:16.533Z,77.29
2019-01-14T17:52:45.436Z,76.27
2019-01-14T17:55:15.444Z,77.28
2019-01-14T17:57:44.307Z,77.05
2019-01-14T18:00:16.331Z,76.43
2019-01-14T18:02:46.224Z,77.61
2019-01-14T18:05:14.956Z,77.11
2019-01-14T18:07:44.116Z,76.21
2019-01-14T18:10:15.472Z,76.71
2019-01-14T18:12:44.862Z,76.79
2019-01-14T18:15:17.903Z,77.08
2019-01-14T18:17:47.142Z,77.50
2019-01-14T18:20:18.053Z,78.03
2019-01-14T18:22:46.973Z,77.47
2019-01-14T18:25:16.639Z,77.69
2019-01-14T18:27:45.507Z,78.72
2019-01-14T18:30:18.759Z,78.94
2019-01-14T18:32:47.728Z,78.69
2019-01-14T18:35:17.603Z,78.10
2019-01-14T18:37:46.702Z,78.40
2019-01-14T18:40:18.814Z,79.10
2019-01-14T18:42:48.818Z,78.85
2019-01-14T18:45:18.789Z,78.06
2019-01-14T18:47:48.677Z,79.03
2019-01-14T18:50:20.249Z,78.79
2019-01-14T18:52:49.270Z,79.44
2019-01-14T18:55:18.179Z,79.69
2019-01-14T18:57:47.280Z,79.89
2019-01-14T19:00:20.919Z,80.38
2019-01-14T19:02:51.103Z,81.06
2019-01-14T19:05:21.314Z,81.42
2019-01-14T19:07:51.031Z,82.85
2019-01-14T19:10:20.926Z,82.89
2019-01-14T19:12:51.116Z,83.21
2019-01-14T19:15:21.544Z,83.38
2019-01-14T19:17:52.765Z,83.82
2019-01-14T19:20:26.479Z,85.09
2019-01-14T19:22:56.014Z,85.22
2019-01-14T19:25:28.144Z,86.09
2019-01-14T19:27:59.389Z,86.74
2019-01-14T19:30:29.890Z,86.41
2019-01-14T19:33:01.842Z,87.57
2019-01-14T19:35:33.648Z,86.81
2019-01-14T19:38:03.262Z,87.43
2019-01-14T19:40:33.290Z,87.02
2019-01-14T19:43:02.945Z,87.96
2019-01-14T19:45:33.167Z,89.02
2019-01-14T19:48:05.577Z,89.09
2019-01-14T19:50:36.584Z,88.94
2019-01-14T19:53:07.254Z,89.66
2019-01-14T19:55:36.499Z,89.33
2019-01-14T19:58:05.978Z,89.89
2019-01-14T20:08:32.864Z,89.99
2019-01-14T20:11:08.998Z,90.21
2019-01-14T20:13:32.202Z,89.86
2019-01-14T20:16:00.908Z,90.73
2019-01-14T20:18:29.483Z,90.04
2019-01-14T20:20:58.113Z,90.61
2019-01-14T20:23:26.663Z,90.45
2019-01-14T20:25:55.379Z,90.35
2019-01-14T20:28:23.973Z,92.23
2019-01-14T20:30:54.742Z,93.82
2019-01-14T20:33:23.354Z,93.17
2019-01-14T20:35:52.006Z,92.62
2019-01-14T20:38:20.597Z,92.45
2019-01-14T20:40:49.171Z,92.54
2019-01-14T20:43:17.813Z,93.17
2019-01-14T20:45:46.399Z,94.09
2019-01-14T20:48:15.020Z,94.06
2019-01-14T20:50:43.597Z,94.93
2019-01-14T20:53:13.826Z,95.03
2019-01-14T20:55:42.791Z,95.19
2019-01-14T20:58:11.447Z,96.30
2019-01-14T21:00:40.484Z,96.26
2019-01-14T21:03:10.005Z,96.84
2019-01-14T21:05:38.702Z,97.22
2019-01-14T21:08:07.336Z,97.83
2019-01-14T21:10:35.917Z,97.45
2019-01-14T21:13:04.729Z,98.36
2019-01-14T21:15:33.361Z,98.11
2019-01-14T21:18:01.988Z,97.89
2019-01-14T21:20:30.610Z,98.45
2019-01-14T21:22:59.221Z,98.61
2019-01-14T21:25:27.766Z,98.16
2019-01-14T21:27:56.452Z,98.33
2019-01-14T21:30:25.871Z,98.63
2019-01-14T21:32:54.542Z,99.08
2019-01-14T21:35:23.112Z,97.83
2019-01-14T21:37:52.171Z,98.47
2019-01-14T21:40:20.736Z,99.10
2019-01-14T21:42:49.356Z,97.99
2019-01-14T21:45:18.003Z,97.75
2019-01-14T21:47:46.650Z,98.12
2019-01-14T21:50:19.925Z,98.26
2019-01-14T21:52:48.635Z,98.75
2019-01-14T21:55:22.210Z,98.60
2019-01-14T21:57:50.826Z,98.22
2019-01-14T22:00:21.329Z,98.81
2019-01-14T22:02:49.964Z,98.93
2019-01-14T22:05:18.518Z,98.35
2019-01-14T22:07:47.181Z,98.00
2019-01-14T22:10:18.199Z,97.83
2019-01-14T22:12:46.885Z,97.68
2019-01-14T22:15:15.873Z,96.99
2019-01-14T22:17:44.472Z,96.54
2019-01-14T22:20:19.385Z,97.61
2019-01-14T22:22:48.165Z,96.32
2019-01-14T22:25:16.830Z,97.01
2019-01-14T22:27:45.464Z,97.84
2019-01-14T22:30:20.202Z,96.66
2019-01-14T22:32:48.901Z,97.65
2019-01-14T22:35:17.525Z,98.27
2019-01-14T22:37:46.193Z,98.06
2019-01-14T22:40:15.440Z,98.01
2019-01-14T22:42:44.264Z,98.00
2019-01-14T22:45:13.610Z,98.27
2019-01-14T22:47:42.227Z,97.72
2019-01-14T22:50:16.404Z,97.67
2019-01-14T22:52:45.089Z,98.36
2019-01-14T22:55:13.710Z,98.40
2019-01-14T22:57:42.321Z,98.05
2019-01-14T23:00:40.102Z,97.25
2019-01-14T23:03:08.796Z,96.99
2019-01-14T23:05:37.344Z,97.55
2019-01-14T23:08:06.026Z,97.99
2019-01-14T23:10:34.572Z,97.43
2019-01-14T23:13:03.181Z,97.00
2019-01-14T23:15:31.734Z,97.58
2019-01-14T23:18:00.343Z,96.90
2019-01-14T23:20:28.897Z,96.71
2019-01-14T23:22:57.489Z,96.89
2019-01-14T23:25:26.063Z,96.68
2019-01-14T23:27:54.684Z,96.83
2019-01-14T23:30:23.247Z,96.83
2019-01-14T23:32:51.884Z,95.78
2019-01-14T23:35:20.524Z,95.90
2019-01-14T23:37:49.148Z,95.91
2019-01-14T23:40:17.724Z,96.04
2019-01-14T23:42:46.321Z,96.04
2019-01-14T23:45:14.965Z,96.19
2019-01-14T23:47:43.644Z,96.62
2019-01-14T23:50:12.389Z,96.30
2019-01-14T23:52:41.053Z,96.97
2019-01-14T23:55:09.753Z,96.76
2019-01-14T23:57:38.361Z,97.30
